sensor_id;sensor_type;location;lat;lon;timestamp;pressure;altitude;pressure_sealevel;temperature;humidity
69058;BME280;56128;37.534;-122.308;2023-07-13T00:01:26;101336.38;;;22.40;75.24
69058;BME280;56128;37.534;-122.308;2023-07-13T00:03:52;101334.06;;;22.28;75.85
69058;BME280;56128;37.534;-122.308;2023-07-13T00:06:17;101331.69;;;22.25;76.88
69058;BME280;56128;37.534;-122.308;2023-07-13T00:08:45;101330.22;;;22.14;77.57
69058;BME280;56128;37.534;-122.308;2023-07-13T00:11:11;101330.28;;;22.06;78.09
69058;BME280;56128;37.534;-122.308;2023-07-13T00:13:37;101335.97;;;21.96;78.89
69058;BME280;56128;37.534;-122.308;2023-07-13T00:16:04;101334.13;;;21.88;79.83
69058;BME280;56128;37.534;-122.308;2023-07-13T00:18:30;101333.78;;;21.83;79.58
69058;BME280;56128;37.534;-122.308;2023-07-13T00:20:56;101339.28;;;21.75;79.54
69058;BME280;56128;37.534;-122.308;2023-07-13T00:23:33;101336.59;;;21.67;80.29
69058;BME280;56128;37.534;-122.308;2023-07-13T00:26:02;101331.34;;;21.57;80.37
69058;BME280;56128;37.534;-122.308;2023-07-13T00:28:28;101335.28;;;21.46;81.92
69058;BME280;56128;37.534;-122.308;2023-07-13T00:30:53;101334.97;;;21.41;82.57
69058;BME280;56128;37.534;-122.308;2023-07-13T00:33:19;101329.19;;;21.36;82.35
69058;BME280;56128;37.534;-122.308;2023-07-13T00:35:45;101327.16;;;21.30;83.51
69058;BME280;56128;37.534;-122.308;2023-07-13T00:38:11;101333.44;;;21.30;83.98
69058;BME280;56128;37.534;-122.308;2023-07-13T00:40:37;101331.25;;;21.25;83.77
69058;BME280;56128;37.534;-122.308;2023-07-13T00:43:04;101336.91;;;21.16;84.30
69058;BME280;56128;37.534;-122.308;2023-07-13T00:48:13;101335.53;;;21.12;85.46
69058;BME280;56128;37.534;-122.308;2023-07-13T00:50:40;101330.78;;;21.05;84.92
69058;BME280;56128;37.534;-122.308;2023-07-13T00:53:06;101332.66;;;21.05;86.25
69058;BME280;56128;37.534;-122.308;2023-07-13T00:55:33;101335.56;;;21.03;84.20
69058;BME280;56128;37.534;-122.308;2023-07-13T00:57:59;101340.66;;;20.98;83.78
69058;BME280;56128;37.534;-122.308;2023-07-13T01:00:25;101329.28;;;20.86;85.50
69058;BME280;56128;37.534;-122.308;2023-07-13T01:02:51;101339.16;;;20.71;86.69
69058;BME280;56128;37.534;-122.308;2023-07-13T01:05:18;101334.00;;;20.51;87.18
69058;BME280;56128;37.534;-122.308;2023-07-13T01:07:45;101332.28;;;20.34;88.11
69058;BME280;56128;37.534;-122.308;2023-07-13T01:10:11;101342.47;;;20.23;88.92
69058;BME280;56128;37.534;-122.308;2023-07-13T01:12:38;101343.63;;;20.13;89.53
69058;BME280;56128;37.534;-122.308;2023-07-13T01:15:04;101340.03;;;19.95;91.02
69058;BME280;56128;37.534;-122.308;2023-07-13T01:17:31;101342.13;;;19.75;91.56
69058;BME280;56128;37.534;-122.308;2023-07-13T01:19:58;101331.22;;;19.67;92.78
69058;BME280;56128;37.534;-122.308;2023-07-13T01:22:25;101341.16;;;19.50;93.35
69058;BME280;56128;37.534;-122.308;2023-07-13T01:24:52;101336.38;;;19.44;94.81
69058;BME280;56128;37.534;-122.308;2023-07-13T01:27:23;101335.44;;;19.27;94.30
69058;BME280;56128;37.534;-122.308;2023-07-13T01:29:50;101334.63;;;19.08;95.20
69058;BME280;56128;37.534;-122.308;2023-07-13T01:32:18;101340.47;;;18.95;95.88
69058;BME280;56128;37.534;-122.308;2023-07-13T01:34:52;101332.00;;;18.98;95.86
69058;BME280;56128;37.534;-122.308;2023-07-13T01:37:22;101337.97;;;18.84;96.33
69058;BME280;56128;37.534;-122.308;2023-07-13T01:39:48;101342.66;;;18.74;97.26
69058;BME280;56128;37.534;-122.308;2023-07-13T01:42:14;101334.69;;;18.72;97.99
69058;BME280;56128;37.534;-122.308;2023-07-13T01:44:40;101333.06;;;18.61;98.93
69058;BME280;56128;37.534;-122.308;2023-07-13T01:47:06;101341.97;;;18.54;99.84
69058;BME280;56128;37.534;-122.308;2023-07-13T01:49:32;101334.22;;;18.41;100.00
69058;BME280;56128;37.534;-122.308;2023-07-13T01:51:57;101336.00;;;18.32;100.00
69058;BME280;56128;37.534;-122.308;2023-07-13T01:54:23;101339.94;;;18.20;100.00
69058;BME280;56128;37.534;-122.308;2023-07-13T01:56:49;101330.72;;;18.12;100.00
69058;BME280;56128;37.534;-122.308;2023-07-13T01:59:15;101340.34;;;17.97;100.00
69058;BME280;56128;37.534;-122.308;2023-07-13T02:01:40;101339.94;;;17.92;100.00
69058;BME280;56128;37.534;-122.308;2023-07-13T02:04:06;101333.56;;;17.83;100.00
69058;BME280;56128;37.534;-122.308;2023-07-13T02:06:32;101338.59;;;17.78;100.00
69058;BME280;56128;37.534;-122.308;2023-07-13T02:08:58;101344.91;;;17.68;100.00
69058;BME280;56128;37.534;-122.308;2023-07-13T02:11:24;101340.50;;;17.67;100.00
69058;BME280;56128;37.534;-122.308;2023-07-13T02:13:50;101338.97;;;17.55;100.00
69058;BME280;56128;37.534;-122.308;2023-07-13T02:16:17;101346.53;;;17.51;100.00
69058;BME280;56128;37.534;-122.308;2023-07-13T02:18:43;101347.00;;;17.47;100.00
69058;BME280;56128;37.534;-122.308;2023-07-13T02:21:08;101338.31;;;17.43;100.00
69058;BME280;56128;37.534;-122.308;2023-07-13T02:23:34;101346.88;;;17.39;100.00
69058;BME280;56128;37.534;-122.308;2023-07-13T02:26:01;101336.38;;;17.35;100.00
69058;BME280;56128;37.534;-122.308;2023-07-13T02:28:27;101342.63;;;17.26;100.00
69058;BME280;56128;37.534;-122.308;2023-07-13T02:30:53;101339.69;;;17.19;100.00
69058;BME280;56128;37.534;-122.308;2023-07-13T02:33:19;101344.94;;;17.11;100.00
69058;BME280;56128;37.534;-122.308;2023-07-13T02:35:45;101342.97;;;17.03;100.00
69058;BME280;56128;37.534;-122.308;2023-07-13T02:38:11;101347.25;;;16.96;100.00
69058;BME280;56128;37.534;-122.308;2023-07-13T02:40:37;101359.22;;;16.94;100.00
69058;BME280;56128;37.534;-122.308;2023-07-13T02:43:03;101347.38;;;16.85;100.00
69058;BME280;56128;37.534;-122.308;2023-07-13T02:45:29;101356.94;;;16.79;100.00
69058;BME280;56128;37.534;-122.308;2023-07-13T02:47:55;101361.34;;;16.70;100.00
69058;BME280;56128;37.534;-122.308;2023-07-13T02:50:21;101361.50;;;16.59;100.00
69058;BME280;56128;37.534;-122.308;2023-07-13T02:52:49;101355.66;;;16.44;100.00
69058;BME280;56128;37.534;-122.308;2023-07-13T02:55:14;101367.72;;;16.40;100.00
69058;BME280;56128;37.534;-122.308;2023-07-13T02:57:40;101358.91;;;16.28;100.00
69058;BME280;56128;37.534;-122.308;2023-07-13T03:00:06;101364.28;;;16.18;100.00
69058;BME280;56128;37.534;-122.308;2023-07-13T03:02:35;101371.34;;;16.10;100.00
69058;BME280;56128;37.534;-122.308;2023-07-13T03:05:01;101370.09;;;16.04;100.00
69058;BME280;56128;37.534;-122.308;2023-07-13T03:07:27;101371.03;;;15.93;100.00
69058;BME280;56128;37.534;-122.308;2023-07-13T03:09:56;101376.66;;;15.80;100.00
69058;BME280;56128;37.534;-122.308;2023-07-13T03:12:22;101370.22;;;15.71;100.00
69058;BME280;56128;37.534;-122.308;2023-07-13T03:14:48;101370.03;;;15.63;100.00
69058;BME280;56128;37.534;-122.308;2023-07-13T03:17:14;101379.53;;;15.57;100.00
69058;BME280;56128;37.534;-122.308;2023-07-13T03:19:40;101373.94;;;15.49;100.00
69058;BME280;56128;37.534;-122.308;2023-07-13T03:22:06;101377.56;;;15.38;100.00
69058;BME280;56128;37.534;-122.308;2023-07-13T03:24:32;101374.72;;;15.30;100.00
69058;BME280;56128;37.534;-122.308;2023-07-13T03:26:58;101385.44;;;15.20;100.00
69058;BME280;56128;37.534;-122.308;2023-07-13T03:29:24;101387.38;;;15.18;100.00
69058;BME280;56128;37.534;-122.308;2023-07-13T03:31:50;101385.63;;;15.07;100.00
69058;BME280;56128;37.534;-122.308;2023-07-13T03:34:16;101388.84;;;15.01;100.00
69058;BME280;56128;37.534;-122.308;2023-07-13T03:36:41;101393.31;;;14.91;100.00
69058;BME280;56128;37.534;-122.308;2023-07-13T03:39:08;101392.78;;;14.76;100.00
69058;BME280;56128;37.534;-122.308;2023-07-13T03:41:34;101399.66;;;14.69;100.00
69058;BME280;56128;37.534;-122.308;2023-07-13T03:44:00;101398.56;;;14.60;100.00
69058;BME280;56128;37.534;-122.308;2023-07-13T03:46:26;101398.31;;;14.52;100.00
69058;BME280;56128;37.534;-122.308;2023-07-13T03:48:52;101397.63;;;14.50;100.00
69058;BME280;56128;37.534;-122.308;2023-07-13T03:51:18;101398.34;;;14.40;100.00
69058;BME280;56128;37.534;-122.308;2023-07-13T03:53:45;101409.63;;;14.34;100.00
69058;BME280;56128;37.534;-122.308;2023-07-13T03:56:11;101411.97;;;14.27;100.00
69058;BME280;56128;37.534;-122.308;2023-07-13T03:58:40;101409.66;;;14.23;100.00
69058;BME280;56128;37.534;-122.308;2023-07-13T04:01:06;101414.06;;;14.12;100.00
69058;BME280;56128;37.534;-122.308;2023-07-13T04:03:33;101403.47;;;14.00;100.00
69058;BME280;56128;37.534;-122.308;2023-07-13T04:06:00;101406.28;;;13.98;100.00
69058;BME280;56128;37.534;-122.308;2023-07-13T04:08:26;101416.56;;;13.93;100.00
69058;BME280;56128;37.534;-122.308;2023-07-13T04:10:52;101400.03;;;13.86;100.00
69058;BME280;56128;37.534;-122.308;2023-07-13T04:13:18;101412.03;;;13.82;100.00
69058;BME280;56128;37.534;-122.308;2023-07-13T04:15:44;101401.13;;;13.72;100.00
69058;BME280;56128;37.534;-122.308;2023-07-13T04:18:10;101416.53;;;13.70;100.00
69058;BME280;56128;37.534;-122.308;2023-07-13T04:20:36;101415.81;;;13.68;100.00
69058;BME280;56128;37.534;-122.308;2023-07-13T04:23:01;101417.91;;;13.64;100.00
69058;BME280;56128;37.534;-122.308;2023-07-13T04:25:27;101417.53;;;13.58;100.00
69058;BME280;56128;37.534;-122.308;2023-07-13T04:27:53;101420.44;;;13.55;100.00
69058;BME280;56128;37.534;-122.308;2023-07-13T04:30:19;101418.97;;;13.51;100.00
69058;BME280;56128;37.534;-122.308;2023-07-13T04:32:46;101424.00;;;13.44;100.00
69058;BME280;56128;37.534;-122.308;2023-07-13T04:35:11;101426.69;;;13.44;100.00
69058;BME280;56128;37.534;-122.308;2023-07-13T04:37:39;101429.72;;;13.39;100.00
69058;BME280;56128;37.534;-122.308;2023-07-13T04:40:06;101434.44;;;13.36;100.00
69058;BME280;56128;37.534;-122.308;2023-07-13T04:42:35;101440.16;;;13.31;100.00
69058;BME280;56128;37.534;-122.308;2023-07-13T04:45:01;101444.91;;;13.27;100.00
69058;BME280;56128;37.534;-122.308;2023-07-13T04:47:29;101451.38;;;13.25;100.00
69058;BME280;56128;37.534;-122.308;2023-07-13T04:49:55;101450.75;;;13.21;100.00
69058;BME280;56128;37.534;-122.308;2023-07-13T04:52:21;101453.69;;;13.18;100.00
69058;BME280;56128;37.534;-122.308;2023-07-13T04:54:47;101454.78;;;13.15;100.00
69058;BME280;56128;37.534;-122.308;2023-07-13T04:57:13;101456.09;;;13.10;100.00
69058;BME280;56128;37.534;-122.308;2023-07-13T04:59:39;101452.78;;;13.06;100.00
69058;BME280;56128;37.534;-122.308;2023-07-13T05:02:05;101455.97;;;13.00;100.00
69058;BME280;56128;37.534;-122.308;2023-07-13T05:04:31;101463.47;;;12.95;100.00
69058;BME280;56128;37.534;-122.308;2023-07-13T05:06:58;101473.72;;;12.90;100.00
69058;BME280;56128;37.534;-122.308;2023-07-13T05:09:24;101474.94;;;12.86;100.00
69058;BME280;56128;37.534;-122.308;2023-07-13T05:11:50;101472.47;;;12.82;100.00
69058;BME280;56128;37.534;-122.308;2023-07-13T05:14:16;101480.75;;;12.79;100.00
69058;BME280;56128;37.534;-122.308;2023-07-13T05:16:42;101485.59;;;12.74;100.00
69058;BME280;56128;37.534;-122.308;2023-07-13T05:19:08;101488.41;;;12.73;100.00
69058;BME280;56128;37.534;-122.308;2023-07-13T05:21:34;101486.81;;;12.70;100.00
69058;BME280;56128;37.534;-122.308;2023-07-13T05:24:00;101487.25;;;12.64;100.00
69058;BME280;56128;37.534;-122.308;2023-07-13T05:26:26;101488.34;;;12.61;100.00
69058;BME280;56128;37.534;-122.308;2023-07-13T05:28:52;101484.16;;;12.57;100.00
69058;BME280;56128;37.534;-122.308;2023-07-13T05:31:18;101487.94;;;12.55;100.00
69058;BME280;56128;37.534;-122.308;2023-07-13T05:33:44;101496.22;;;12.52;100.00
69058;BME280;56128;37.534;-122.308;2023-07-13T05:36:09;101493.66;;;12.50;100.00
69058;BME280;56128;37.534;-122.308;2023-07-13T05:38:35;101487.31;;;12.38;100.00
69058;BME280;56128;37.534;-122.308;2023-07-13T05:41:01;101489.81;;;12.41;100.00
69058;BME280;56128;37.534;-122.308;2023-07-13T05:43:27;101487.84;;;12.43;100.00
69058;BME280;56128;37.534;-122.308;2023-07-13T05:45:53;101487.97;;;12.42;100.00
69058;BME280;56128;37.534;-122.308;2023-07-13T05:48:20;101494.00;;;12.32;100.00
69058;BME280;56128;37.534;-122.308;2023-07-13T05:50:45;101493.38;;;12.29;100.00
69058;BME280;56128;37.534;-122.308;2023-07-13T05:53:12;101482.97;;;12.24;100.00
69058;BME280;56128;37.534;-122.308;2023-07-13T05:55:56;101494.44;;;12.26;100.00
69058;BME280;56128;37.534;-122.308;2023-07-13T05:58:22;101486.53;;;12.25;100.00
69058;BME280;56128;37.534;-122.308;2023-07-13T06:00:47;101499.94;;;12.25;100.00
69058;BME280;56128;37.534;-122.308;2023-07-13T06:03:13;101492.22;;;12.20;100.00
69058;BME280;56128;37.534;-122.308;2023-07-13T06:05:39;101490.38;;;12.21;100.00
69058;BME280;56128;37.534;-122.308;2023-07-13T06:08:06;101489.53;;;12.20;100.00
69058;BME280;56128;37.534;-122.308;2023-07-13T06:10:32;101494.13;;;12.18;100.00
69058;BME280;56128;37.534;-122.308;2023-07-13T06:12:58;101500.47;;;12.17;100.00
69058;BME280;56128;37.534;-122.308;2023-07-13T06:15:24;101496.94;;;12.16;100.00
69058;BME280;56128;37.534;-122.308;2023-07-13T06:17:50;101496.28;;;12.13;100.00
69058;BME280;56128;37.534;-122.308;2023-07-13T06:20:16;101497.13;;;12.13;100.00
69058;BME280;56128;37.534;-122.308;2023-07-13T06:22:41;101497.25;;;12.12;100.00
69058;BME280;56128;37.534;-122.308;2023-07-13T06:25:07;101491.25;;;12.08;100.00
69058;BME280;56128;37.534;-122.308;2023-07-13T06:27:33;101494.34;;;12.02;100.00
69058;BME280;56128;37.534;-122.308;2023-07-13T06:29:59;101489.34;;;11.97;100.00
69058;BME280;56128;37.534;-122.308;2023-07-13T06:32:25;101496.59;;;11.95;100.00
69058;BME280;56128;37.534;-122.308;2023-07-13T06:34:51;101494.81;;;11.96;100.00
69058;BME280;56128;37.534;-122.308;2023-07-13T06:37:17;101491.53;;;11.91;100.00
69058;BME280;56128;37.534;-122.308;2023-07-13T06:39:43;101489.28;;;11.84;100.00
69058;BME280;56128;37.534;-122.308;2023-07-13T06:42:09;101486.94;;;11.80;100.00
69058;BME280;56128;37.534;-122.308;2023-07-13T06:44:36;101493.47;;;11.76;100.00
69058;BME280;56128;37.534;-122.308;2023-07-13T06:47:02;101492.50;;;11.77;100.00
69058;BME280;56128;37.534;-122.308;2023-07-13T06:49:27;101490.16;;;11.72;100.00
69058;BME280;56128;37.534;-122.308;2023-07-13T06:51:53;101490.38;;;11.69;100.00
69058;BME280;56128;37.534;-122.308;2023-07-13T06:54:19;101502.94;;;11.68;100.00
69058;BME280;56128;37.534;-122.308;2023-07-13T06:56:45;101490.59;;;11.66;100.00
69058;BME280;56128;37.534;-122.308;2023-07-13T06:59:11;101489.59;;;11.67;100.00
69058;BME280;56128;37.534;-122.308;2023-07-13T07:01:36;101476.13;;;11.68;100.00
69058;BME280;56128;37.534;-122.308;2023-07-13T07:04:03;101485.13;;;11.67;100.00
69058;BME280;56128;37.534;-122.308;2023-07-13T07:06:28;101477.28;;;11.64;100.00
69058;BME280;56128;37.534;-122.308;2023-07-13T07:08:54;101478.16;;;11.65;100.00
69058;BME280;56128;37.534;-122.308;2023-07-13T07:11:22;101487.38;;;11.61;100.00
69058;BME280;56128;37.534;-122.308;2023-07-13T07:13:48;101483.72;;;11.62;100.00
69058;BME280;56128;37.534;-122.308;2023-07-13T07:16:14;101477.63;;;11.60;100.00
69058;BME280;56128;37.534;-122.308;2023-07-13T07:18:41;101482.44;;;11.55;100.00
69058;BME280;56128;37.534;-122.308;2023-07-13T07:21:06;101478.78;;;11.56;100.00
69058;BME280;56128;37.534;-122.308;2023-07-13T07:23:32;101482.44;;;11.55;100.00
69058;BME280;56128;37.534;-122.308;2023-07-13T07:25:58;101478.03;;;11.53;100.00
69058;BME280;56128;37.534;-122.308;2023-07-13T07:28:24;101472.44;;;11.57;100.00
69058;BME280;56128;37.534;-122.308;2023-07-13T07:30:52;101468.81;;;11.58;100.00
69058;BME280;56128;37.534;-122.308;2023-07-13T07:33:18;101467.53;;;11.63;100.00
69058;BME280;56128;37.534;-122.308;2023-07-13T07:35:44;101466.66;;;11.63;100.00
69058;BME280;56128;37.534;-122.308;2023-07-13T07:38:10;101457.91;;;11.61;100.00
69058;BME280;56128;37.534;-122.308;2023-07-13T07:40:36;101461.41;;;11.61;100.00
69058;BME280;56128;37.534;-122.308;2023-07-13T07:43:02;101464.22;;;11.60;100.00
69058;BME280;56128;37.534;-122.308;2023-07-13T07:45:28;101471.06;;;11.64;100.00
69058;BME280;56128;37.534;-122.308;2023-07-13T07:47:54;101476.84;;;11.58;100.00
69058;BME280;56128;37.534;-122.308;2023-07-13T07:50:24;101474.94;;;11.60;100.00
69058;BME280;56128;37.534;-122.308;2023-07-13T07:52:50;101468.06;;;11.56;100.00
69058;BME280;56128;37.534;-122.308;2023-07-13T07:55:16;101470.31;;;11.49;100.00
69058;BME280;56128;37.534;-122.308;2023-07-13T07:57:42;101478.03;;;11.53;100.00
69058;BME280;56128;37.534;-122.308;2023-07-13T08:00:08;101464.75;;;11.52;100.00
69058;BME280;56128;37.534;-122.308;2023-07-13T08:02:34;101470.63;;;11.44;100.00
69058;BME280;56128;37.534;-122.308;2023-07-13T08:05:00;101465.06;;;11.47;100.00
69058;BME280;56128;37.534;-122.308;2023-07-13T08:07:26;101476.19;;;11.41;100.00
69058;BME280;56128;37.534;-122.308;2023-07-13T08:09:52;101469.53;;;11.47;100.00
69058;BME280;56128;37.534;-122.308;2023-07-13T08:12:18;101476.53;;;11.49;100.00
69058;BME280;56128;37.534;-122.308;2023-07-13T08:14:44;101475.78;;;11.47;100.00
69058;BME280;56128;37.534;-122.308;2023-07-13T08:17:10;101470.84;;;11.41;100.00
69058;BME280;56128;37.534;-122.308;2023-07-13T08:19:35;101471.59;;;11.43;100.00
69058;BME280;56128;37.534;-122.308;2023-07-13T08:22:01;101477.81;;;11.44;100.00
69058;BME280;56128;37.534;-122.308;2023-07-13T08:24:27;101473.72;;;11.38;100.00
69058;BME280;56128;37.534;-122.308;2023-07-13T08:26:53;101468.81;;;11.32;100.00
69058;BME280;56128;37.534;-122.308;2023-07-13T08:29:20;101466.13;;;11.32;100.00
69058;BME280;56128;37.534;-122.308;2023-07-13T08:31:45;101477.16;;;11.27;100.00
69058;BME280;56128;37.534;-122.308;2023-07-13T08:34:11;101470.16;;;11.25;100.00
69058;BME280;56128;37.534;-122.308;2023-07-13T08:36:37;101463.41;;;11.19;100.00
69058;BME280;56128;37.534;-122.308;2023-07-13T08:39:03;101469.72;;;11.18;100.00
69058;BME280;56128;37.534;-122.308;2023-07-13T08:41:28;101471.53;;;11.17;100.00
69058;BME280;56128;37.534;-122.308;2023-07-13T08:43:58;101459.41;;;11.12;100.00
69058;BME280;56128;37.534;-122.308;2023-07-13T08:46:30;101448.06;;;11.08;100.00
69058;BME280;56128;37.534;-122.308;2023-07-13T08:48:58;101457.06;;;11.07;100.00
69058;BME280;56128;37.534;-122.308;2023-07-13T08:56:53;101464.75;;;10.99;100.00
69058;BME280;56128;37.534;-122.308;2023-07-13T08:59:20;101458.66;;;10.97;100.00
69058;BME280;56128;37.534;-122.308;2023-07-13T09:01:56;101464.31;;;10.92;100.00
69058;BME280;56128;37.534;-122.308;2023-07-13T09:07:23;101457.63;;;10.85;100.00
69058;BME280;56128;37.534;-122.308;2023-07-13T09:12:35;101459.34;;;10.86;100.00
69058;BME280;56128;37.534;-122.308;2023-07-13T09:15:06;101458.91;;;10.79;100.00
69058;BME280;56128;37.534;-122.308;2023-07-13T09:17:47;101458.25;;;10.76;100.00
69058;BME280;56128;37.534;-122.308;2023-07-13T09:20:24;101456.72;;;10.71;100.00
69058;BME280;56128;37.534;-122.308;2023-07-13T09:22:52;101458.66;;;10.69;100.00
69058;BME280;56128;37.534;-122.308;2023-07-13T09:27:44;101453.59;;;10.65;100.00
69058;BME280;56128;37.534;-122.308;2023-07-13T09:30:17;101455.72;;;10.60;100.00
69058;BME280;56128;37.534;-122.308;2023-07-13T09:32:50;101458.59;;;10.57;100.00
69058;BME280;56128;37.534;-122.308;2023-07-13T09:35:19;101463.09;;;10.56;100.00
69058;BME280;56128;37.534;-122.308;2023-07-13T09:37:46;101459.34;;;10.59;100.00
69058;BME280;56128;37.534;-122.308;2023-07-13T09:40:21;101460.28;;;10.58;100.00
69058;BME280;56128;37.534;-122.308;2023-07-13T09:42:49;101459.63;;;10.54;100.00
69058;BME280;56128;37.534;-122.308;2023-07-13T09:45:17;101457.06;;;10.52;100.00
69058;BME280;56128;37.534;-122.308;2023-07-13T09:47:53;101459.63;;;10.54;100.00
69058;BME280;56128;37.534;-122.308;2023-07-13T09:50:24;101463.59;;;10.48;100.00
69058;BME280;56128;37.534;-122.308;2023-07-13T09:52:50;101464.34;;;10.50;100.00
69058;BME280;56128;37.534;-122.308;2023-07-13T09:55:30;101474.00;;;10.53;100.00
69058;BME280;56128;37.534;-122.308;2023-07-13T09:57:56;101462.22;;;10.55;100.00
69058;BME280;56128;37.534;-122.308;2023-07-13T10:00:27;101464.03;;;10.55;100.00
69058;BME280;56128;37.534;-122.308;2023-07-13T10:05:41;101462.63;;;10.49;100.00
69058;BME280;56128;37.534;-122.308;2023-07-13T10:08:28;101464.44;;;10.49;100.00
69058;BME280;56128;37.534;-122.308;2023-07-13T10:10:54;101465.59;;;10.45;100.00
69058;BME280;56128;37.534;-122.308;2023-07-13T10:13:26;101467.50;;;10.43;100.00
69058;BME280;56128;37.534;-122.308;2023-07-13T10:15:53;101462.34;;;10.39;100.00
69058;BME280;56128;37.534;-122.308;2023-07-13T10:18:19;101465.13;;;10.38;100.00
69058;BME280;56128;37.534;-122.308;2023-07-13T10:20:46;101464.44;;;10.34;100.00
69058;BME280;56128;37.534;-122.308;2023-07-13T10:23:13;101460.03;;;10.33;100.00
69058;BME280;56128;37.534;-122.308;2023-07-13T10:25:42;101459.28;;;10.31;100.00
69058;BME280;56128;37.534;-122.308;2023-07-13T10:28:15;101462.06;;;10.30;100.00
69058;BME280;56128;37.534;-122.308;2023-07-13T10:30:45;101456.59;;;10.31;100.00
69058;BME280;56128;37.534;-122.308;2023-07-13T10:33:12;101457.59;;;10.30;100.00
69058;BME280;56128;37.534;-122.308;2023-07-13T10:35:38;101456.69;;;10.30;100.00
69058;BME280;56128;37.534;-122.308;2023-07-13T10:38:07;101461.38;;;10.26;100.00
69058;BME280;56128;37.534;-122.308;2023-07-13T10:40:40;101456.25;;;10.23;100.00
69058;BME280;56128;37.534;-122.308;2023-07-13T10:43:14;101453.69;;;10.21;100.00
69058;BME280;56128;37.534;-122.308;2023-07-13T10:45:42;101450.34;;;10.18;100.00
69058;BME280;56128;37.534;-122.308;2023-07-13T10:48:11;101438.97;;;10.14;100.00
69058;BME280;56128;37.534;-122.308;2023-07-13T10:50:37;101447.00;;;10.14;100.00
69058;BME280;56128;37.534;-122.308;2023-07-13T10:58:29;101445.66;;;10.07;100.00
69058;BME280;56128;37.534;-122.308;2023-07-13T11:03:32;101440.91;;;9.98;100.00
69058;BME280;56128;37.534;-122.308;2023-07-13T11:08:35;101450.81;;;9.96;100.00
69058;BME280;56128;37.534;-122.308;2023-07-13T11:11:03;101443.84;;;9.93;100.00
69058;BME280;56128;37.534;-122.308;2023-07-13T11:13:37;101457.31;;;9.91;100.00
69058;BME280;56128;37.534;-122.308;2023-07-13T11:16:13;101453.69;;;9.93;100.00
69058;BME280;56128;37.534;-122.308;2023-07-13T11:18:39;101463.63;;;9.90;100.00
69058;BME280;56128;37.534;-122.308;2023-07-13T11:21:21;101463.41;;;9.94;100.00
69058;BME280;56128;37.534;-122.308;2023-07-13T11:24:00;101461.13;;;9.87;100.00
69058;BME280;56128;37.534;-122.308;2023-07-13T11:29:47;101464.09;;;9.83;100.00
69058;BME280;56128;37.534;-122.308;2023-07-13T11:31:54;101469.44;;;9.83;100.00
69058;BME280;56128;37.534;-122.308;2023-07-13T11:34:23;101468.56;;;9.82;100.00
69058;BME280;56128;37.534;-122.308;2023-07-13T11:36:52;101463.44;;;9.79;100.00
69058;BME280;56128;37.534;-122.308;2023-07-13T11:39:19;101464.28;;;9.80;100.00
69058;BME280;56128;37.534;-122.308;2023-07-13T11:41:50;101464.28;;;9.80;100.00
69058;BME280;56128;37.534;-122.308;2023-07-13T11:44:19;101469.16;;;9.73;100.00
69058;BME280;56128;37.534;-122.308;2023-07-13T11:46:49;101460.34;;;9.71;100.00
69058;BME280;56128;37.534;-122.308;2023-07-13T11:49:17;101465.81;;;9.69;100.00
69058;BME280;56128;37.534;-122.308;2023-07-13T11:51:43;101464.19;;;9.67;100.00
69058;BME280;56128;37.534;-122.308;2023-07-13T11:54:20;101470.38;;;9.67;100.00
69058;BME280;56128;37.534;-122.308;2023-07-13T11:56:48;101466.06;;;9.65;100.00
69058;BME280;56128;37.534;-122.308;2023-07-13T11:59:15;101472.56;;;9.61;100.00
69058;BME280;56128;37.534;-122.308;2023-07-13T12:01:46;101479.63;;;9.62;100.00
69058;BME280;56128;37.534;-122.308;2023-07-13T12:04:24;101477.81;;;9.62;100.00
69058;BME280;56128;37.534;-122.308;2023-07-13T12:06:57;101475.50;;;9.56;100.00
69058;BME280;56128;37.534;-122.308;2023-07-13T12:09:25;101472.16;;;9.52;100.00
69058;BME280;56128;37.534;-122.308;2023-07-13T12:11:51;101479.44;;;9.50;100.00
69058;BME280;56128;37.534;-122.308;2023-07-13T12:14:18;101476.84;;;9.49;100.00
69058;BME280;56128;37.534;-122.308;2023-07-13T12:16:47;101482.38;;;9.46;100.00
69058;BME280;56128;37.534;-122.308;2023-07-13T12:19:20;101479.91;;;9.42;100.00
69058;BME280;56128;37.534;-122.308;2023-07-13T12:21:46;101484.25;;;9.43;100.00
69058;BME280;56128;37.534;-122.308;2023-07-13T12:24:22;101483.63;;;9.40;100.00
69058;BME280;56128;37.534;-122.308;2023-07-13T12:29:48;101491.22;;;9.32;100.00
69058;BME280;56128;37.534;-122.308;2023-07-13T12:32:15;101489.47;;;9.31;100.00
69058;BME280;56128;37.534;-122.308;2023-07-13T12:35:06;101495.88;;;9.28;100.00
69058;BME280;56128;37.534;-122.308;2023-07-13T12:37:41;101493.88;;;9.32;100.00
69058;BME280;56128;37.534;-122.308;2023-07-13T12:40:12;101491.47;;;9.27;100.00
69058;BME280;56128;37.534;-122.308;2023-07-13T12:42:38;101489.16;;;9.21;100.00
69058;BME280;56128;37.534;-122.308;2023-07-13T12:45:17;101494.50;;;9.21;100.00
69058;BME280;56128;37.534;-122.308;2023-07-13T12:47:43;101488.31;;;9.20;100.00
69058;BME280;56128;37.534;-122.308;2023-07-13T12:50:18;101491.00;;;9.20;100.00